sensor_id;sensor_type;location;lat;lon;timestamp;pressure;altitude;pressure_sealevel;temperature;humidity
24154;BME280;12312;53.362;-1.518;2023-06-22T00:00:09;99447.75;;;18.70;100.00
24154;BME280;12312;53.362;-1.518;2023-06-22T00:02:55;99440.78;;;18.60;100.00
24154;BME280;12312;53.362;-1.518;2023-06-22T00:05:39;99440.94;;;18.58;100.00
24154;BME280;12312;53.362;-1.518;2023-06-22T00:08:23;99437.47;;;18.48;100.00
24154;BME280;12312;53.362;-1.518;2023-06-22T00:11:07;99436.25;;;18.43;100.00
24154;BME280;12312;53.362;-1.518;2023-06-22T00:13:52;99435.78;;;18.47;100.00
24154;BME280;12312;53.362;-1.518;2023-06-22T00:16:36;99441.84;;;18.32;100.00
24154;BME280;12312;53.362;-1.518;2023-06-22T00:19:21;99444.06;;;18.01;100.00
24154;BME280;12312;53.362;-1.518;2023-06-22T00:22:05;99440.50;;;17.83;100.00
24154;BME280;12312;53.362;-1.518;2023-06-22T00:24:49;99442.53;;;17.99;100.00
24154;BME280;12312;53.362;-1.518;2023-06-22T00:27:34;99441.84;;;18.32;100.00
24154;BME280;12312;53.362;-1.518;2023-06-22T00:30:18;99439.53;;;18.37;100.00
24154;BME280;12312;53.362;-1.518;2023-06-22T00:33:03;99438.13;;;17.98;100.00
24154;BME280;12312;53.362;-1.518;2023-06-22T00:35:47;99447.06;;;18.16;100.00
24154;BME280;12312;53.362;-1.518;2023-06-22T00:38:31;99448.69;;;18.26;100.00
24154;BME280;12312;53.362;-1.518;2023-06-22T00:41:16;99445.22;;;18.16;100.00
24154;BME280;12312;53.362;-1.518;2023-06-22T00:44:00;99444.38;;;17.98;100.00
24154;BME280;12312;53.362;-1.518;2023-06-22T00:46:44;99448.13;;;17.88;100.00
24154;BME280;12312;53.362;-1.518;2023-06-22T00:49:28;99449.59;;;18.00;100.00
24154;BME280;12312;53.362;-1.518;2023-06-22T00:52:12;99447.38;;;17.95;100.00
24154;BME280;12312;53.362;-1.518;2023-06-22T00:55:04;99454.28;;;17.98;100.00
24154;BME280;12312;53.362;-1.518;2023-06-22T00:57:50;99448.59;;;18.01;100.00
24154;BME280;12312;53.362;-1.518;2023-06-22T01:00:40;99453.66;;;17.86;100.00
24154;BME280;12312;53.362;-1.518;2023-06-22T01:03:24;99456.97;;;17.80;100.00
24154;BME280;12312;53.362;-1.518;2023-06-22T01:06:10;99450.38;;;17.92;100.00
24154;BME280;12312;53.362;-1.518;2023-06-22T01:09:15;99461.31;;;17.63;100.00
24154;BME280;12312;53.362;-1.518;2023-06-22T01:12:06;99461.16;;;17.65;100.00
24154;BME280;12312;53.362;-1.518;2023-06-22T01:14:55;99461.44;;;17.89;100.00
24154;BME280;12312;53.362;-1.518;2023-06-22T01:17:43;99469.91;;;17.94;100.00
24154;BME280;12312;53.362;-1.518;2023-06-22T01:20:27;99468.66;;;17.89;100.00
24154;BME280;12312;53.362;-1.518;2023-06-22T01:26:11;99477.88;;;18.13;100.00
24154;BME280;12312;53.362;-1.518;2023-06-22T01:28:58;99479.94;;;17.74;100.00
24154;BME280;12312;53.362;-1.518;2023-06-22T01:31:45;99473.69;;;18.01;100.00
24154;BME280;12312;53.362;-1.518;2023-06-22T01:34:30;99465.13;;;17.88;100.00
24154;BME280;12312;53.362;-1.518;2023-06-22T01:37:15;99471.59;;;17.95;100.00
24154;BME280;12312;53.362;-1.518;2023-06-22T01:40:00;99479.38;;;17.98;100.00
24154;BME280;12312;53.362;-1.518;2023-06-22T01:42:45;99470.94;;;18.11;100.00
24154;BME280;12312;53.362;-1.518;2023-06-22T01:45:29;99474.88;;;18.16;100.00
24154;BME280;12312;53.362;-1.518;2023-06-22T01:48:14;99477.66;;;18.24;100.00
24154;BME280;12312;53.362;-1.518;2023-06-22T01:50:58;99475.03;;;18.32;100.00
24154;BME280;12312;53.362;-1.518;2023-06-22T01:53:43;99488.94;;;18.28;100.00
24154;BME280;12312;53.362;-1.518;2023-06-22T01:56:27;99479.78;;;18.03;100.00
24154;BME280;12312;53.362;-1.518;2023-06-22T01:59:32;99480.59;;;17.86;100.00
24154;BME280;12312;53.362;-1.518;2023-06-22T02:02:19;99481.28;;;17.88;100.00
24154;BME280;12312;53.362;-1.518;2023-06-22T02:05:09;99487.66;;;17.87;100.00
24154;BME280;12312;53.362;-1.518;2023-06-22T02:08:04;99488.06;;;17.92;100.00
24154;BME280;12312;53.362;-1.518;2023-06-22T02:10:51;99490.06;;;17.90;100.00
24154;BME280;12312;53.362;-1.518;2023-06-22T02:13:37;99482.06;;;17.98;100.00
24154;BME280;12312;53.362;-1.518;2023-06-22T02:16:25;99489.97;;;18.09;100.00
24154;BME280;12312;53.362;-1.518;2023-06-22T02:19:13;99500.72;;;18.09;100.00
24154;BME280;12312;53.362;-1.518;2023-06-22T02:22:03;99493.94;;;18.05;100.00
24154;BME280;12312;53.362;-1.518;2023-06-22T02:24:47;99491.50;;;17.85;100.00
24154;BME280;12312;53.362;-1.518;2023-06-22T02:27:35;99498.09;;;18.17;100.00
24154;BME280;12312;53.362;-1.518;2023-06-22T02:30:19;99486.41;;;18.09;100.00
24154;BME280;12312;53.362;-1.518;2023-06-22T02:33:03;99489.44;;;17.96;100.00
24154;BME280;12312;53.362;-1.518;2023-06-22T02:35:47;99491.94;;;18.07;100.00
24154;BME280;12312;53.362;-1.518;2023-06-22T02:38:32;99494.66;;;18.25;100.00
24154;BME280;12312;53.362;-1.518;2023-06-22T02:41:18;99494.84;;;17.96;100.00
24154;BME280;12312;53.362;-1.518;2023-06-22T02:44:02;99497.22;;;17.45;100.00
24154;BME280;12312;53.362;-1.518;2023-06-22T02:46:47;99498.16;;;17.07;100.00
24154;BME280;12312;53.362;-1.518;2023-06-22T02:49:31;99503.97;;;17.86;100.00
24154;BME280;12312;53.362;-1.518;2023-06-22T02:52:16;99499.00;;;18.08;100.00
24154;BME280;12312;53.362;-1.518;2023-06-22T02:54:59;99499.25;;;18.15;100.00
24154;BME280;12312;53.362;-1.518;2023-06-22T02:57:43;99496.72;;;18.13;100.00
24154;BME280;12312;53.362;-1.518;2023-06-22T03:00:28;99493.47;;;17.92;100.00
24154;BME280;12312;53.362;-1.518;2023-06-22T03:03:14;99494.84;;;17.96;100.00
24154;BME280;12312;53.362;-1.518;2023-06-22T03:05:58;99495.72;;;18.14;100.00
24154;BME280;12312;53.362;-1.518;2023-06-22T03:08:41;99495.19;;;17.84;100.00
24154;BME280;12312;53.362;-1.518;2023-06-22T03:11:26;99501.25;;;17.68;100.00
24154;BME280;12312;53.362;-1.518;2023-06-22T03:14:10;99507.84;;;17.46;100.00
24154;BME280;12312;53.362;-1.518;2023-06-22T03:16:54;99507.53;;;17.40;100.00
24154;BME280;12312;53.362;-1.518;2023-06-22T03:19:44;99499.81;;;17.64;100.00
24154;BME280;12312;53.362;-1.518;2023-06-22T03:22:28;99494.41;;;17.73;100.00
24154;BME280;12312;53.362;-1.518;2023-06-22T03:25:12;99495.16;;;17.66;100.00
24154;BME280;12312;53.362;-1.518;2023-06-22T03:27:59;99495.63;;;17.52;100.00
24154;BME280;12312;53.362;-1.518;2023-06-22T03:30:44;99488.44;;;17.70;100.00
24154;BME280;12312;53.362;-1.518;2023-06-22T03:33:28;99488.81;;;17.57;100.00
24154;BME280;12312;53.362;-1.518;2023-06-22T03:36:12;99493.66;;;17.54;100.00
24154;BME280;12312;53.362;-1.518;2023-06-22T03:38:56;99491.25;;;17.51;100.00
24154;BME280;12312;53.362;-1.518;2023-06-22T03:41:40;99492.75;;;17.63;100.00
24154;BME280;12312;53.362;-1.518;2023-06-22T03:44:24;99494.69;;;17.43;100.00
24154;BME280;12312;53.362;-1.518;2023-06-22T03:47:08;99499.19;;;16.97;100.00
24154;BME280;12312;53.362;-1.518;2023-06-22T03:49:53;99493.16;;;17.68;100.00
24154;BME280;12312;53.362;-1.518;2023-06-22T03:52:38;99494.44;;;17.64;100.00
24154;BME280;12312;53.362;-1.518;2023-06-22T03:55:22;99495.84;;;17.68;100.00
24154;BME280;12312;53.362;-1.518;2023-06-22T03:58:06;99508.13;;;17.43;100.00
24154;BME280;12312;53.362;-1.518;2023-06-22T04:00:51;99495.44;;;17.90;100.00
24154;BME280;12312;53.362;-1.518;2023-06-22T04:03:35;99508.72;;;17.28;100.00
24154;BME280;12312;53.362;-1.518;2023-06-22T04:06:19;99506.16;;;17.36;100.00
24154;BME280;12312;53.362;-1.518;2023-06-22T04:09:05;99504.00;;;17.76;100.00
24154;BME280;12312;53.362;-1.518;2023-06-22T04:11:50;99504.59;;;17.70;100.00
24154;BME280;12312;53.362;-1.518;2023-06-22T04:14:34;99500.94;;;17.98;100.00
24154;BME280;12312;53.362;-1.518;2023-06-22T04:17:18;99503.03;;;17.50;100.00
24154;BME280;12312;53.362;-1.518;2023-06-22T04:20:04;99499.88;;;17.54;100.00
24154;BME280;12312;53.362;-1.518;2023-06-22T04:22:48;99504.13;;;17.57;100.00
24154;BME280;12312;53.362;-1.518;2023-06-22T04:25:32;99500.75;;;17.36;100.00
24154;BME280;12312;53.362;-1.518;2023-06-22T04:28:16;99507.06;;;17.08;100.00
24154;BME280;12312;53.362;-1.518;2023-06-22T04:31:01;99506.44;;;17.33;100.00
24154;BME280;12312;53.362;-1.518;2023-06-22T04:33:45;99500.94;;;17.71;100.00
24154;BME280;12312;53.362;-1.518;2023-06-22T04:36:29;99504.28;;;17.83;100.00
24154;BME280;12312;53.362;-1.518;2023-06-22T04:39:21;99508.44;;;17.21;100.00
24154;BME280;12312;53.362;-1.518;2023-06-22T04:42:05;99503.06;;;17.21;100.00
24154;BME280;12312;53.362;-1.518;2023-06-22T04:44:49;99502.22;;;17.21;100.00
24154;BME280;12312;53.362;-1.518;2023-06-22T04:47:33;99501.84;;;17.43;100.00
24154;BME280;12312;53.362;-1.518;2023-06-22T04:50:17;99498.19;;;17.44;100.00
24154;BME280;12312;53.362;-1.518;2023-06-22T04:53:04;99497.06;;;17.83;100.00
24154;BME280;12312;53.362;-1.518;2023-06-22T04:55:49;99489.16;;;17.26;100.00
24154;BME280;12312;53.362;-1.518;2023-06-22T04:58:33;99507.25;;;16.97;100.00
24154;BME280;12312;53.362;-1.518;2023-06-22T05:01:17;99501.13;;;17.04;100.00
24154;BME280;12312;53.362;-1.518;2023-06-22T05:04:01;99506.53;;;16.76;100.00
24154;BME280;12312;53.362;-1.518;2023-06-22T05:06:46;99512.38;;;16.62;100.00
24154;BME280;12312;53.362;-1.518;2023-06-22T05:09:31;99518.72;;;16.61;100.00
24154;BME280;12312;53.362;-1.518;2023-06-22T05:12:15;99523.94;;;16.72;100.00
24154;BME280;12312;53.362;-1.518;2023-06-22T05:14:59;99513.31;;;16.99;100.00
24154;BME280;12312;53.362;-1.518;2023-06-22T05:17:43;99515.25;;;17.16;100.00
24154;BME280;12312;53.362;-1.518;2023-06-22T05:20:29;99517.94;;;17.16;100.00
24154;BME280;12312;53.362;-1.518;2023-06-22T05:23:12;99517.19;;;17.33;100.00
24154;BME280;12312;53.362;-1.518;2023-06-22T05:25:56;99520.28;;;17.38;100.00
24154;BME280;12312;53.362;-1.518;2023-06-22T05:28:41;99519.69;;;17.53;100.00
24154;BME280;12312;53.362;-1.518;2023-06-22T05:31:25;99518.31;;;17.40;100.00
24154;BME280;12312;53.362;-1.518;2023-06-22T05:34:09;99524.25;;;17.53;100.00
24154;BME280;12312;53.362;-1.518;2023-06-22T05:36:53;99523.91;;;17.65;100.00
24154;BME280;12312;53.362;-1.518;2023-06-22T05:39:37;99527.38;;;17.39;100.00
24154;BME280;12312;53.362;-1.518;2023-06-22T05:42:21;99520.75;;;17.70;100.00
24154;BME280;12312;53.362;-1.518;2023-06-22T05:45:06;99528.75;;;17.62;100.00
24154;BME280;12312;53.362;-1.518;2023-06-22T05:47:50;99537.47;;;17.73;100.00
24154;BME280;12312;53.362;-1.518;2023-06-22T05:50:34;99531.44;;;17.62;100.00
24154;BME280;12312;53.362;-1.518;2023-06-22T05:53:18;99526.84;;;17.72;100.00
24154;BME280;12312;53.362;-1.518;2023-06-22T05:56:02;99527.16;;;17.69;100.00
24154;BME280;12312;53.362;-1.518;2023-06-22T05:58:46;99527.78;;;17.81;100.00
24154;BME280;12312;53.362;-1.518;2023-06-22T06:01:30;99530.25;;;17.74;100.00
24154;BME280;12312;53.362;-1.518;2023-06-22T06:04:18;99537.47;;;18.01;100.00
24154;BME280;12312;53.362;-1.518;2023-06-22T06:07:02;99534.25;;;17.97;100.00
24154;BME280;12312;53.362;-1.518;2023-06-22T06:09:46;99532.53;;;17.96;100.00
24154;BME280;12312;53.362;-1.518;2023-06-22T06:12:31;99530.63;;;17.79;100.00
24154;BME280;12312;53.362;-1.518;2023-06-22T06:15:16;99525.34;;;18.14;100.00
24154;BME280;12312;53.362;-1.518;2023-06-22T06:18:00;99527.84;;;18.25;100.00
24154;BME280;12312;53.362;-1.518;2023-06-22T06:20:46;99526.75;;;18.45;100.00
24154;BME280;12312;53.362;-1.518;2023-06-22T06:23:30;99535.72;;;18.36;100.00
24154;BME280;12312;53.362;-1.518;2023-06-22T06:26:14;99535.38;;;18.49;100.00
24154;BME280;12312;53.362;-1.518;2023-06-22T06:29:00;99542.31;;;18.51;100.00
24154;BME280;12312;53.362;-1.518;2023-06-22T06:31:44;99539.75;;;18.50;100.00
24154;BME280;12312;53.362;-1.518;2023-06-22T06:34:28;99543.06;;;18.61;100.00
24154;BME280;12312;53.362;-1.518;2023-06-22T06:37:12;99548.00;;;18.66;100.00
24154;BME280;12312;53.362;-1.518;2023-06-22T06:39:56;99550.38;;;18.51;100.00
24154;BME280;12312;53.362;-1.518;2023-06-22T06:42:45;99545.06;;;18.42;100.00
24154;BME280;12312;53.362;-1.518;2023-06-22T06:45:30;99549.16;;;18.63;100.00
24154;BME280;12312;53.362;-1.518;2023-06-22T06:48:16;99551.38;;;18.85;100.00
24154;BME280;12312;53.362;-1.518;2023-06-22T06:51:01;99553.53;;;18.99;100.00
24154;BME280;12312;53.362;-1.518;2023-06-22T06:53:45;99549.91;;;19.08;100.00
24154;BME280;12312;53.362;-1.518;2023-06-22T06:56:29;99552.34;;;19.19;100.00
24154;BME280;12312;53.362;-1.518;2023-06-22T06:59:14;99562.53;;;19.25;100.00
24154;BME280;12312;53.362;-1.518;2023-06-22T07:01:58;99566.56;;;19.21;100.00
24154;BME280;12312;53.362;-1.518;2023-06-22T07:04:42;99558.66;;;19.46;100.00
24154;BME280;12312;53.362;-1.518;2023-06-22T07:07:26;99559.16;;;18.88;100.00
24154;BME280;12312;53.362;-1.518;2023-06-22T07:10:10;99561.25;;;18.94;100.00
24154;BME280;12312;53.362;-1.518;2023-06-22T07:12:55;99554.41;;;19.25;100.00
24154;BME280;12312;53.362;-1.518;2023-06-22T07:15:39;99559.38;;;19.56;100.00
24154;BME280;12312;53.362;-1.518;2023-06-22T07:18:23;99560.44;;;19.37;100.00
24154;BME280;12312;53.362;-1.518;2023-06-22T07:21:08;99559.91;;;19.33;100.00
24154;BME280;12312;53.362;-1.518;2023-06-22T07:23:51;99569.13;;;19.49;100.00
24154;BME280;12312;53.362;-1.518;2023-06-22T07:26:36;99560.97;;;19.66;100.00
24154;BME280;12312;53.362;-1.518;2023-06-22T07:29:20;99559.88;;;19.85;100.00
24154;BME280;12312;53.362;-1.518;2023-06-22T07:32:07;99566.97;;;19.86;100.00
24154;BME280;12312;53.362;-1.518;2023-06-22T07:34:52;99568.28;;;20.07;100.00
24154;BME280;12312;53.362;-1.518;2023-06-22T07:37:36;99566.75;;;20.05;100.00
24154;BME280;12312;53.362;-1.518;2023-06-22T07:40:20;99562.63;;;20.18;100.00
24154;BME280;12312;53.362;-1.518;2023-06-22T07:43:04;99563.56;;;19.76;100.00
24154;BME280;12312;53.362;-1.518;2023-06-22T07:45:49;99562.66;;;20.26;100.00
24154;BME280;12312;53.362;-1.518;2023-06-22T07:48:37;99559.56;;;19.88;100.00
24154;BME280;12312;53.362;-1.518;2023-06-22T07:51:21;99565.69;;;19.98;100.00
24154;BME280;12312;53.362;-1.518;2023-06-22T07:54:05;99569.38;;;19.63;100.00
24154;BME280;12312;53.362;-1.518;2023-06-22T07:56:49;99567.41;;;19.99;100.00
24154;BME280;12312;53.362;-1.518;2023-06-22T07:59:33;99552.00;;;20.33;100.00
24154;BME280;12312;53.362;-1.518;2023-06-22T08:02:17;99559.00;;;20.51;100.00
24154;BME280;12312;53.362;-1.518;2023-06-22T08:05:01;99562.75;;;20.58;100.00
24154;BME280;12312;53.362;-1.518;2023-06-22T08:07:45;99561.88;;;20.58;100.00
24154;BME280;12312;53.362;-1.518;2023-06-22T08:10:29;99564.91;;;20.55;100.00
24154;BME280;12312;53.362;-1.518;2023-06-22T08:13:13;99565.94;;;20.62;100.00
24154;BME280;12312;53.362;-1.518;2023-06-22T08:15:57;99570.13;;;20.48;100.00
24154;BME280;12312;53.362;-1.518;2023-06-22T08:18:41;99566.50;;;20.24;100.00
24154;BME280;12312;53.362;-1.518;2023-06-22T08:21:25;99568.81;;;20.60;100.00
24154;BME280;12312;53.362;-1.518;2023-06-22T08:24:09;99569.16;;;20.57;100.00
24154;BME280;12312;53.362;-1.518;2023-06-22T08:26:54;99572.22;;;20.62;100.00
24154;BME280;12312;53.362;-1.518;2023-06-22T08:29:38;99563.25;;;20.70;100.00
24154;BME280;12312;53.362;-1.518;2023-06-22T08:32:22;99571.88;;;20.81;100.00
24154;BME280;12312;53.362;-1.518;2023-06-22T08:35:07;99562.78;;;20.82;100.00
24154;BME280;12312;53.362;-1.518;2023-06-22T08:37:53;99568.69;;;20.86;100.00
24154;BME280;12312;53.362;-1.518;2023-06-22T08:40:38;99569.69;;;20.77;100.00
24154;BME280;12312;53.362;-1.518;2023-06-22T08:43:22;99567.00;;;20.85;100.00
24154;BME280;12312;53.362;-1.518;2023-06-22T08:46:06;99572.81;;;21.14;99.81
24154;BME280;12312;53.362;-1.518;2023-06-22T08:48:50;99568.41;;;21.05;100.00
24154;BME280;12312;53.362;-1.518;2023-06-22T08:51:34;99574.84;;;20.96;100.00
24154;BME280;12312;53.362;-1.518;2023-06-22T08:54:18;99571.56;;;20.92;99.95
24154;BME280;12312;53.362;-1.518;2023-06-22T08:57:03;99575.84;;;21.11;100.00
24154;BME280;12312;53.362;-1.518;2023-06-22T08:59:47;99556.56;;;21.14;100.00
24154;BME280;12312;53.362;-1.518;2023-06-22T09:02:31;99567.38;;;21.30;98.52
24154;BME280;12312;53.362;-1.518;2023-06-22T09:05:15;99564.50;;;21.32;99.74
24154;BME280;12312;53.362;-1.518;2023-06-22T09:07:59;99569.09;;;20.99;99.28
24154;BME280;12312;53.362;-1.518;2023-06-22T09:10:44;99569.72;;;20.93;98.78
24154;BME280;12312;53.362;-1.518;2023-06-22T09:13:30;99564.50;;;21.16;97.61
24154;BME280;12312;53.362;-1.518;2023-06-22T09:16:15;99562.31;;;21.11;100.00
24154;BME280;12312;53.362;-1.518;2023-06-22T09:18:58;99573.13;;;21.27;99.74
24154;BME280;12312;53.362;-1.518;2023-06-22T09:21:43;99577.53;;;21.52;100.00
24154;BME280;12312;53.362;-1.518;2023-06-22T09:24:27;99573.16;;;21.19;99.72
24154;BME280;12312;53.362;-1.518;2023-06-22T09:27:11;99573.31;;;21.01;100.00
24154;BME280;12312;53.362;-1.518;2023-06-22T09:29:54;99577.53;;;21.28;100.00
24154;BME280;12312;53.362;-1.518;2023-06-22T09:32:38;99574.16;;;21.18;100.00
24154;BME280;12312;53.362;-1.518;2023-06-22T09:35:23;99579.38;;;21.44;99.13
24154;BME280;12312;53.362;-1.518;2023-06-22T09:38:07;99566.53;;;21.46;99.08
24154;BME280;12312;53.362;-1.518;2023-06-22T09:40:50;99574.13;;;21.58;97.73
24154;BME280;12312;53.362;-1.518;2023-06-22T09:43:34;99572.41;;;21.81;95.68
24154;BME280;12312;53.362;-1.518;2023-06-22T09:46:19;99579.53;;;21.82;94.38
24154;BME280;12312;53.362;-1.518;2023-06-22T09:49:05;99576.84;;;21.58;94.96
24154;BME280;12312;53.362;-1.518;2023-06-22T09:51:49;99575.75;;;21.99;95.12
24154;BME280;12312;53.362;-1.518;2023-06-22T09:54:34;99584.69;;;22.08;98.58
24154;BME280;12312;53.362;-1.518;2023-06-22T09:57:18;99578.25;;;22.47;91.97
24154;BME280;12312;53.362;-1.518;2023-06-22T10:00:03;99577.28;;;22.40;92.92
24154;BME280;12312;53.362;-1.518;2023-06-22T10:02:49;99583.56;;;22.71;91.69
24154;BME280;12312;53.362;-1.518;2023-06-22T10:05:34;99583.25;;;22.28;88.52
24154;BME280;12312;53.362;-1.518;2023-06-22T10:08:18;99581.03;;;22.31;91.91
24154;BME280;12312;53.362;-1.518;2023-06-22T10:11:03;99582.75;;;22.94;89.26
24154;BME280;12312;53.362;-1.518;2023-06-22T10:13:47;99587.38;;;23.08;83.92
24154;BME280;12312;53.362;-1.518;2023-06-22T10:16:31;99580.63;;;23.04;85.43
24154;BME280;12312;53.362;-1.518;2023-06-22T10:19:16;99588.00;;;23.18;85.45
24154;BME280;12312;53.362;-1.518;2023-06-22T10:22:00;99585.31;;;23.10;86.54
24154;BME280;12312;53.362;-1.518;2023-06-22T10:24:44;99588.41;;;23.29;84.47
24154;BME280;12312;53.362;-1.518;2023-06-22T10:27:28;99583.63;;;23.54;81.25
24154;BME280;12312;53.362;-1.518;2023-06-22T10:30:13;99587.97;;;23.26;83.05
24154;BME280;12312;53.362;-1.518;2023-06-22T10:32:57;99606.31;;;23.16;84.06
24154;BME280;12312;53.362;-1.518;2023-06-22T10:35:41;99595.81;;;22.67;85.46
24154;BME280;12312;53.362;-1.518;2023-06-22T10:38:25;99595.91;;;22.43;88.29
24154;BME280;12312;53.362;-1.518;2023-06-22T10:41:09;99589.34;;;22.68;91.86
24154;BME280;12312;53.362;-1.518;2023-06-22T10:43:53;99592.38;;;22.73;88.36
24154;BME280;12312;53.362;-1.518;2023-06-22T10:46:37;99597.22;;;22.47;89.40
24154;BME280;12312;53.362;-1.518;2023-06-22T10:49:22;99597.00;;;22.18;92.79
24154;BME280;12312;53.362;-1.518;2023-06-22T10:52:07;99594.97;;;22.20;94.36
24154;BME280;12312;53.362;-1.518;2023-06-22T10:54:52;99596.53;;;22.15;94.19
24154;BME280;12312;53.362;-1.518;2023-06-22T10:57:36;99604.88;;;21.97;93.88
24154;BME280;12312;53.362;-1.518;2023-06-22T11:00:22;99607.81;;;21.80;96.14
24154;BME280;12312;53.362;-1.518;2023-06-22T11:03:06;99609.66;;;21.71;97.14
24154;BME280;12312;53.362;-1.518;2023-06-22T11:05:50;99607.31;;;21.76;96.13
24154;BME280;12312;53.362;-1.518;2023-06-22T11:08:34;99601.53;;;21.79;95.39
24154;BME280;12312;53.362;-1.518;2023-06-22T11:11:25;99612.41;;;21.63;96.11
24154;BME280;12312;53.362;-1.518;2023-06-22T11:14:17;99603.59;;;21.61;97.71
24154;BME280;12312;53.362;-1.518;2023-06-22T11:17:01;99603.09;;;21.42;94.86
24154;BME280;12312;53.362;-1.518;2023-06-22T11:19:46;99607.50;;;21.59;96.30
24154;BME280;12312;53.362;-1.518;2023-06-22T11:22:30;99615.09;;;20.99;100.00
24154;BME280;12312;53.362;-1.518;2023-06-22T11:25:17;99613.41;;;21.38;100.00
24154;BME280;12312;53.362;-1.518;2023-06-22T11:28:02;99609.19;;;21.36;100.00
24154;BME280;12312;53.362;-1.518;2023-06-22T11:30:46;99618.16;;;21.44;99.99
24154;BME280;12312;53.362;-1.518;2023-06-22T11:33:30;99614.75;;;21.42;100.00
24154;BME280;12312;53.362;-1.518;2023-06-22T11:36:15;99612.72;;;21.12;100.00
24154;BME280;12312;53.362;-1.518;2023-06-22T11:38:59;99610.06;;;20.62;100.00
24154;BME280;12312;53.362;-1.518;2023-06-22T11:41:43;99629.44;;;20.42;100.00
24154;BME280;12312;53.362;-1.518;2023-06-22T11:44:27;99618.56;;;20.26;100.00
24154;BME280;12312;53.362;-1.518;2023-06-22T11:47:11;99617.25;;;19.79;100.00
24154;BME280;12312;53.362;-1.518;2023-06-22T11:49:55;99612.78;;;20.13;100.00
24154;BME280;12312;53.362;-1.518;2023-06-22T11:52:39;99607.13;;;20.40;100.00
24154;BME280;12312;53.362;-1.518;2023-06-22T11:55:23;99599.13;;;20.88;100.00
24154;BME280;12312;53.362;-1.518;2023-06-22T11:58:07;99603.56;;;21.77;100.00
24154;BME280;12312;53.362;-1.518;2023-06-22T12:00:52;99599.00;;;22.32;100.00
24154;BME280;12312;53.362;-1.518;2023-06-22T12:03:36;99601.56;;;22.26;100.00
24154;BME280;12312;53.362;-1.518;2023-06-22T12:06:20;99597.84;;;22.65;100.00
24154;BME280;12312;53.362;-1.518;2023-06-22T12:09:04;99603.16;;;23.12;100.00
24154;BME280;12312;53.362;-1.518;2023-06-22T12:11:49;99606.28;;;23.24;100.00
24154;BME280;12312;53.362;-1.518;2023-06-22T12:14:33;99602.31;;;22.58;100.00
24154;BME280;12312;53.362;-1.518;2023-06-22T12:17:17;99592.00;;;23.30;100.00
24154;BME280;12312;53.362;-1.518;2023-06-22T12:20:01;99587.69;;;24.74;100.00
24154;BME280;12312;53.362;-1.518;2023-06-22T12:22:48;99593.44;;;25.00;100.00
24154;BME280;12312;53.362;-1.518;2023-06-22T12:25:35;99592.28;;;24.59;99.57
24154;BME280;12312;53.362;-1.518;2023-06-22T12:28:19;99575.91;;;25.30;89.23
24154;BME280;12312;53.362;-1.518;2023-06-22T12:31:03;99581.94;;;25.26;89.61
24154;BME280;12312;53.362;-1.518;2023-06-22T12:33:47;99587.84;;;25.29;86.59
24154;BME280;12312;53.362;-1.518;2023-06-22T12:36:31;99584.09;;;25.79;77.90
24154;BME280;12312;53.362;-1.518;2023-06-22T12:39:15;99579.41;;;25.24;83.16
24154;BME280;12312;53.362;-1.518;2023-06-22T12:41:58;99577.97;;;25.07;78.67
24154;BME280;12312;53.362;-1.518;2023-06-22T12:44:43;99585.31;;;26.85;73.83
24154;BME280;12312;53.362;-1.518;2023-06-22T12:47:27;99576.66;;;26.69;79.48
24154;BME280;12312;53.362;-1.518;2023-06-22T12:50:11;99582.72;;;25.20;81.10
24154;BME280;12312;53.362;-1.518;2023-06-22T12:52:55;99582.28;;;25.37;82.79
24154;BME280;12312;53.362;-1.518;2023-06-22T12:55:39;99573.06;;;23.59;90.98
24154;BME280;12312;53.362;-1.518;2023-06-22T12:58:23;99574.59;;;24.05;93.82
24154;BME280;12312;53.362;-1.518;2023-06-22T13:01:07;99581.06;;;23.89;91.91
24154;BME280;12312;53.362;-1.518;2023-06-22T13:03:51;99574.63;;;23.53;95.95
24154;BME280;12312;53.362;-1.518;2023-06-22T13:06:35;99575.91;;;25.09;86.42
24154;BME280;12312;53.362;-1.518;2023-06-22T13:09:19;99577.03;;;25.91;75.36
24154;BME280;12312;53.362;-1.518;2023-06-22T13:12:03;99577.59;;;26.07;79.43
24154;BME280;12312;53.362;-1.518;2023-06-22T13:14:48;99569.66;;;26.60;70.79
24154;BME280;12312;53.362;-1.518;2023-06-22T13:17:32;99563.91;;;27.15;67.96
24154;BME280;12312;53.362;-1.518;2023-06-22T13:20:15;99559.28;;;26.36;77.32
24154;BME280;12312;53.362;-1.518;2023-06-22T13:22:59;99570.72;;;25.90;74.01
24154;BME280;12312;53.362;-1.518;2023-06-22T13:25:43;99572.09;;;25.73;74.32
24154;BME280;12312;53.362;-1.518;2023-06-22T13:28:27;99573.56;;;25.76;75.62
24154;BME280;12312;53.362;-1.518;2023-06-22T13:31:13;99572.25;;;24.31;81.70
24154;BME280;12312;53.362;-1.518;2023-06-22T13:33:57;99567.00;;;23.49;89.00
24154;BME280;12312;53.362;-1.518;2023-06-22T13:36:41;99556.84;;;23.65;85.51
24154;BME280;12312;53.362;-1.518;2023-06-22T13:39:25;99565.50;;;23.32;89.39
24154;BME280;12312;53.362;-1.518;2023-06-22T13:42:09;99564.94;;;23.36;90.56
24154;BME280;12312;53.362;-1.518;2023-06-22T13:44:53;99565.09;;;22.90;90.55
24154;BME280;12312;53.362;-1.518;2023-06-22T13:47:37;99565.13;;;23.35;92.25
24154;BME280;12312;53.362;-1.518;2023-06-22T13:50:21;99565.19;;;23.64;92.92
24154;BME280;12312;53.362;-1.518;2023-06-22T13:53:05;99570.06;;;23.31;92.53
24154;BME280;12312;53.362;-1.518;2023-06-22T13:55:49;99565.38;;;23.03;91.72
24154;BME280;12312;53.362;-1.518;2023-06-22T13:58:33;99572.28;;;22.83;92.79
24154;BME280;12312;53.362;-1.518;2023-06-22T14:01:17;99568.00;;;22.88;94.74
24154;BME280;12312;53.362;-1.518;2023-06-22T14:04:01;99560.88;;;22.64;93.84
24154;BME280;12312;53.362;-1.518;2023-06-22T14:06:48;99565.00;;;22.83;93.82
24154;BME280;12312;53.362;-1.518;2023-06-22T14:09:32;99571.81;;;23.02;91.88
24154;BME280;12312;53.362;-1.518;2023-06-22T14:12:16;99576.81;;;23.13;89.02
24154;BME280;12312;53.362;-1.518;2023-06-22T14:15:01;99568.94;;;23.26;89.26